Time;durP1;ratioP1;P1;durP2;ratioP2;P2;SDS_P1;SDS_P2;PMS_P1;PMS_P2;Temp;Humidity;BMP_temperature;BMP_pressure;BME280_temperature;BME280_humidity;BME280_pressure;Samples;Min_cycle;Max_cycle;Signal;HPM_P1;HPM_P2
2023/12/09 00:01:19;;;;;;;21.35;5.50;;;7.90;99.90;;;;;;5077020;28;20032;-64
2023/12/09 00:03:45;;;;;;;21.90;5.57;;;8.00;99.90;;;;;;5077085;28;20101;-64
2023/12/09 00:06:11;;;;;;;26.83;6.15;;;7.90;99.90;;;;;;5076998;28;20060;-63
2023/12/09 00:08:37;;;;;;;22.58;5.65;;;7.90;99.90;;;;;;5059399;28;20305;-64
2023/12/09 00:11:03;;;;;;;22.88;5.20;;;7.90;99.90;;;;;;5076055;28;20070;-64
2023/12/09 00:13:30;;;;;;;21.60;5.15;;;7.90;99.90;;;;;;5076637;28;20036;-64
2023/12/09 00:15:56;;;;;;;22.15;5.18;;;7.90;99.90;;;;;;5076752;28;20025;-64
2023/12/09 00:18:22;;;;;;;23.35;5.32;;;7.90;99.90;;;;;;5092815;28;20035;-64
2023/12/09 00:20:48;;;;;;;20.75;5.95;;;7.90;99.90;;;;;;5076976;28;20056;-64
2023/12/09 00:23:13;;;;;;;23.48;6.10;;;7.90;99.90;;;;;;5076705;28;20388;-65
2023/12/09 00:25:39;;;;;;;26.20;5.93;;;7.90;99.90;;;;;;5076355;28;20410;-64
2023/12/09 00:28:05;;;;;;;20.17;5.15;;;7.90;99.90;;;;;;5076634;28;20120;-64
2023/12/09 00:30:31;;;;;;;25.45;5.20;;;7.80;99.90;;;;;;5076300;28;20085;-63
2023/12/09 00:32:57;;;;;;;26.17;6.00;;;7.80;99.90;;;;;;5092680;28;20029;-64
2023/12/09 00:35:22;;;;;;;17.67;5.63;;;7.80;99.90;;;;;;5075920;28;20139;-63
2023/12/09 00:37:48;;;;;;;21.73;5.40;;;7.80;99.90;;;;;;5092746;28;20085;-63
2023/12/09 00:40:14;;;;;;;21.33;5.15;;;7.80;99.90;;;;;;5092781;28;20037;-64
2023/12/09 00:42:40;;;;;;;24.08;5.90;;;7.80;99.90;;;;;;5076007;28;20029;-63
2023/12/09 00:45:06;;;;;;;18.60;5.28;;;7.80;99.90;;;;;;5075916;28;20433;-63
2023/12/09 00:47:32;;;;;;;20.88;5.38;;;7.80;99.90;;;;;;5092925;28;20307;-63
2023/12/09 00:49:57;;;;;;;27.92;5.47;;;7.80;99.90;;;;;;5076110;28;20032;-64
2023/12/09 00:52:23;;;;;;;20.67;5.72;;;7.70;99.90;;;;;;5059181;28;20033;-63
2023/12/09 00:54:49;;;;;;;26.63;5.90;;;7.70;99.90;;;;;;5075628;28;20036;-64
2023/12/09 00:57:15;;;;;;;22.27;6.05;;;7.70;99.90;;;;;;5061023;28;20135;-63
2023/12/09 00:59:41;;;;;;;15.75;4.90;;;7.70;99.90;;;;;;5080508;28;20127;-63
2023/12/09 01:02:07;;;;;;;21.70;5.25;;;7.70;99.90;;;;;;5079627;28;20459;-63
2023/12/09 01:04:32;;;;;;;24.60;5.47;;;7.70;99.90;;;;;;5080408;28;20031;-63
2023/12/09 01:06:58;;;;;;;25.00;5.07;;;7.70;99.90;;;;;;5079626;28;20029;-64
2023/12/09 01:09:24;;;;;;;22.35;5.28;;;7.60;99.90;;;;;;5080241;28;20028;-63
2023/12/09 01:11:50;;;;;;;20.63;5.93;;;7.60;99.90;;;;;;5080334;28;20036;-63
2023/12/09 01:14:16;;;;;;;23.13;5.80;;;7.60;99.90;;;;;;5080128;28;20044;-64
2023/12/09 01:16:41;;;;;;;19.75;5.35;;;7.60;99.90;;;;;;5096545;28;20356;-63
2023/12/09 01:19:07;;;;;;;20.48;5.55;;;7.60;99.90;;;;;;5080145;28;20036;-63
2023/12/09 01:21:33;;;;;;;24.42;5.63;;;7.60;99.90;;;;;;5080494;28;20024;-64
2023/12/09 01:24:00;;;;;;;21.95;5.30;;;7.60;99.90;;;;;;5096326;28;20028;-64
2023/12/09 01:26:26;;;;;;;19.63;5.20;;;7.50;99.90;;;;;;5079350;28;20093;-64
2023/12/09 01:28:51;;;;;;;23.80;5.43;;;7.50;99.90;;;;;;5079854;28;20048;-64
2023/12/09 01:31:17;;;;;;;23.17;5.82;;;7.50;99.90;;;;;;5079319;28;20101;-64
2023/12/09 01:33:43;;;;;;;20.63;6.13;;;7.50;99.90;;;;;;5079714;28;20075;-64
2023/12/09 01:36:08;;;;;;;22.70;5.03;;;7.50;99.90;;;;;;5079859;28;20036;-63
2023/12/09 01:38:35;;;;;;;24.33;5.28;;;7.50;99.90;;;;;;5079105;28;20032;-64
2023/12/09 01:41:01;;;;;;;29.25;5.97;;;7.50;99.90;;;;;;5078980;28;20029;-63
2023/12/09 01:43:27;;;;;;;21.42;4.90;;;7.50;99.90;;;;;;5079956;28;20082;-64
2023/12/09 01:45:55;;;;;;;24.05;5.50;;;7.50;99.90;;;;;;5080069;28;20028;-64
2023/12/09 01:48:22;;;;;;;20.65;5.75;;;7.50;99.90;;;;;;5078838;28;20032;-64
2023/12/09 01:50:49;;;;;;;19.35;5.35;;;7.50;99.90;;;;;;5078843;28;20043;-64
2023/12/09 01:53:16;;;;;;;21.13;6.20;;;7.50;99.90;;;;;;5095667;28;20116;-64
2023/12/09 01:55:42;;;;;;;22.73;5.72;;;7.50;99.90;;;;;;5079867;28;20060;-64
2023/12/09 01:58:09;;;;;;;24.90;5.22;;;7.50;99.90;;;;;;5061995;28;20033;-64
2023/12/09 02:00:37;;;;;;;27.55;6.03;;;7.40;99.90;;;;;;5079435;28;20043;-64
2023/12/09 02:03:03;;;;;;;18.90;5.10;;;7.50;99.90;;;;;;5079386;28;20299;-64
2023/12/09 02:05:29;;;;;;;25.50;5.72;;;7.40;99.90;;;;;;5095433;28;20035;-65
2023/12/09 02:07:55;;;;;;;24.83;6.07;;;7.50;99.90;;;;;;5078826;28;20052;-64
2023/12/09 02:10:21;;;;;;;26.25;5.78;;;7.40;99.90;;;;;;5079087;28;20123;-64
2023/12/09 02:13:10;;;;;;;25.17;5.90;;;7.40;99.90;;;;;;5079403;28;20041;-64
2023/12/09 02:15:55;;;;;;;26.17;5.93;;;7.40;99.90;;;;;;5079364;28;20037;-64
2023/12/09 02:18:22;;;;;;;21.52;6.38;;;7.30;99.90;;;;;;5079131;28;20074;-64
2023/12/09 02:20:48;;;;;;;21.42;6.40;;;7.30;99.90;;;;;;5079135;28;20024;-64
2023/12/09 02:23:14;;;;;;;16.33;5.70;;;7.30;99.90;;;;;;5079052;28;20043;-64
2023/12/09 02:25:40;;;;;;;20.02;6.05;;;7.30;99.90;;;;;;5078505;28;20277;-63
2023/12/09 02:28:14;;;;;;;25.98;6.22;;;7.30;99.90;;;;;;5078728;28;20054;-64
2023/12/09 02:30:46;;;;;;;21.63;6.13;;;7.30;99.90;;;;;;5078185;28;20028;-64
2023/12/09 02:33:15;;;;;;;22.35;6.00;;;7.20;99.90;;;;;;5078189;28;20131;-64
2023/12/09 02:35:43;;;;;;;21.60;6.18;;;7.20;99.90;;;;;;5079186;28;20395;-64
2023/12/09 02:38:11;;;;;;;27.42;6.30;;;7.20;99.90;;;;;;5078022;28;20028;-64
2023/12/09 02:40:38;;;;;;;29.45;6.40;;;7.20;99.90;;;;;;5077879;28;20021;-64
2023/12/09 02:43:05;;;;;;;24.40;6.95;;;7.20;99.90;;;;;;5078630;28;20036;-64
2023/12/09 02:45:31;;;;;;;29.85;6.93;;;7.20;99.90;;;;;;5077856;28;20109;-64
2023/12/09 02:47:57;;;;;;;29.10;6.68;;;7.20;99.90;;;;;;5061083;28;20040;-64
2023/12/09 02:50:22;;;;;;;30.92;8.23;;;7.20;99.90;;;;;;5078490;28;20407;-64
2023/12/09 02:52:48;;;;;;;32.55;7.35;;;7.20;99.90;;;;;;5078427;28;20056;-64
2023/12/09 02:55:14;;;;;;;23.20;7.10;;;7.20;99.90;;;;;;5078302;28;20077;-63
2023/12/09 02:57:40;;;;;;;29.73;7.40;;;7.20;99.90;;;;;;5078294;28;20051;-64
2023/12/09 03:00:06;;;;;;;20.13;7.50;;;7.10;99.90;;;;;;5078312;28;20115;-63
2023/12/09 03:02:32;;;;;;;27.00;7.40;;;7.10;99.90;;;;;;5078206;28;20392;-64
2023/12/09 03:04:58;;;;;;;22.88;7.13;;;7.10;99.90;;;;;;5077368;28;20115;-65
2023/12/09 03:07:24;;;;;;;26.13;8.15;;;7.20;99.90;;;;;;5078131;28;20087;-64
2023/12/09 03:09:50;;;;;;;25.63;7.68;;;7.20;99.90;;;;;;5077296;28;20033;-64
2023/12/09 03:12:16;;;;;;;29.65;8.52;;;7.20;99.90;;;;;;5060532;28;20147;-65
2023/12/09 03:14:42;;;;;;;30.60;9.00;;;7.20;99.90;;;;;;5077259;28;20097;-64
2023/12/09 03:17:11;;;;;;;30.90;8.63;;;7.10;99.90;;;;;;5077925;28;20040;-64
2023/12/09 03:19:37;;;;;;;27.90;8.18;;;7.10;99.90;;;;;;5077290;28;20028;-64
2023/12/09 03:22:03;;;;;;;31.42;8.43;;;7.20;99.90;;;;;;5076590;28;20041;-64
2023/12/09 03:24:29;;;;;;;26.27;8.55;;;7.20;99.90;;;;;;5077904;28;20029;-64
2023/12/09 03:26:55;;;;;;;27.70;7.97;;;7.20;99.90;;;;;;5076916;28;20033;-64
2023/12/09 03:29:21;;;;;;;25.98;7.85;;;7.10;99.90;;;;;;5077518;28;20060;-63
2023/12/09 03:31:48;;;;;;;24.48;7.82;;;7.10;99.90;;;;;;5077660;28;20422;-63
2023/12/09 03:34:15;;;;;;;24.67;7.75;;;7.20;99.90;;;;;;5076782;28;20387;-64
2023/12/09 03:36:41;;;;;;;25.35;8.25;;;7.20;99.90;;;;;;5093694;28;20115;-63
2023/12/09 03:39:07;;;;;;;28.55;8.30;;;7.20;99.90;;;;;;5077496;28;20450;-64
2023/12/09 03:41:36;;;;;;;23.40;8.20;;;7.20;99.90;;;;;;5077511;28;20020;-64
2023/12/09 03:44:02;;;;;;;27.63;8.05;;;7.20;99.90;;;;;;5077479;28;20530;-64
2023/12/09 03:46:28;;;;;;;30.38;7.53;;;7.20;99.90;;;;;;5077358;28;20042;-64
2023/12/09 03:48:54;;;;;;;23.83;7.47;;;7.30;99.90;;;;;;5059938;28;20307;-64
2023/12/09 03:51:20;;;;;;;27.23;7.05;;;7.30;99.90;;;;;;5076565;28;20033;-64
2023/12/09 03:53:46;;;;;;;21.17;7.03;;;7.20;99.90;;;;;;5076357;28;20144;-64
2023/12/09 03:56:16;;;;;;;23.23;7.00;;;7.20;99.90;;;;;;5093404;28;20021;-64
2023/12/09 03:58:42;;;;;;;22.90;7.55;;;7.20;99.90;;;;;;5077343;28;20052;-64
2023/12/09 04:01:08;;;;;;;35.50;7.40;;;7.20;99.90;;;;;;5076402;28;20067;-63
2023/12/09 04:03:34;;;;;;;22.90;7.28;;;7.20;99.90;;;;;;5076314;28;20086;-64
2023/12/09 04:06:01;;;;;;;25.02;7.07;;;7.30;99.90;;;;;;5076343;28;20087;-64
2023/12/09 04:08:26;;;;;;;23.85;6.65;;;7.30;99.90;;;;;;5093052;28;20041;-64
2023/12/09 04:10:52;;;;;;;20.38;7.03;;;7.30;99.90;;;;;;5093193;28;20284;-64
2023/12/09 04:13:18;;;;;;;26.88;7.65;;;7.30;99.90;;;;;;5059578;28;20067;-63
2023/12/09 04:15:44;;;;;;;27.08;6.82;;;7.30;99.90;;;;;;5076948;28;20049;-64
2023/12/09 04:18:09;;;;;;;23.10;7.20;;;7.30;99.90;;;;;;5076163;28;20094;-63
2023/12/09 04:20:36;;;;;;;21.42;6.38;;;7.30;99.90;;;;;;5076184;28;20081;-63
2023/12/09 04:23:02;;;;;;;23.38;7.32;;;7.30;99.90;;;;;;5076933;28;20089;-64
2023/12/09 04:25:28;;;;;;;22.63;7.07;;;7.40;99.90;;;;;;5075959;28;20032;-64
2023/12/09 04:27:54;;;;;;;25.60;8.40;;;7.40;99.90;;;;;;5076001;28;20530;-64
2023/12/09 04:30:22;;;;;;;26.08;8.23;;;7.50;99.90;;;;;;5076090;28;20037;-64
2023/12/09 04:32:48;;;;;;;29.30;8.60;;;7.50;99.90;;;;;;5076359;28;20029;-64
2023/12/09 04:35:14;;;;;;;21.38;6.88;;;7.50;99.90;;;;;;5075840;28;20028;-64
2023/12/09 04:37:40;;;;;;;25.02;7.85;;;7.40;99.90;;;;;;5076800;28;20035;-64
2023/12/09 04:40:13;;;;;;;27.70;7.82;;;7.30;99.90;;;;;;5076684;28;20028;-64
2023/12/09 04:42:39;;;;;;;23.92;7.30;;;7.30;99.90;;;;;;5076721;28;20086;-64
2023/12/09 04:45:06;;;;;;;23.08;6.95;;;7.30;99.90;;;;;;5075885;28;20028;-63
2023/12/09 04:47:33;;;;;;;19.80;7.15;;;7.20;99.90;;;;;;5075970;28;20036;-64
2023/12/09 04:49:59;;;;;;;25.83;7.47;;;7.20;99.90;;;;;;5076013;28;20066;-64
2023/12/09 04:52:25;;;;;;;23.60;7.57;;;7.30;99.90;;;;;;5076633;28;20305;-64
2023/12/09 04:54:52;;;;;;;20.80;7.55;;;7.20;99.90;;;;;;5092695;28;20093;-64
2023/12/09 04:57:18;;;;;;;27.40;7.43;;;7.30;99.90;;;;;;5075736;28;20032;-64
2023/12/09 04:59:44;;;;;;;22.70;7.63;;;7.30;99.90;;;;;;5075732;28;20025;-64
2023/12/09 05:02:10;;;;;;;27.33;7.95;;;7.40;99.90;;;;;;5076017;28;20029;-64
2023/12/09 05:04:36;;;;;;;21.48;7.38;;;7.30;99.90;;;;;;5076622;28;20028;-64
2023/12/09 05:07:03;;;;;;;18.27;6.90;;;7.40;99.90;;;;;;5076562;28;20093;-64
2023/12/09 05:09:29;;;;;;;23.35;7.15;;;7.40;99.90;;;;;;5092409;28;20048;-64
2023/12/09 05:11:55;;;;;;;24.67;7.90;;;7.40;99.90;;;;;;5076400;28;20063;-64
2023/12/09 05:14:21;;;;;;;25.83;8.57;;;7.40;99.90;;;;;;5076330;28;20040;-64
2023/12/09 05:16:47;;;;;;;25.50;7.90;;;7.40;99.90;;;;;;5075844;28;20020;-64
2023/12/09 05:19:12;;;;;;;25.08;7.47;;;7.40;99.90;;;;;;5058786;28;20032;-64
2023/12/09 05:21:38;;;;;;;26.00;8.40;;;7.50;99.90;;;;;;5075728;28;20105;-63
2023/12/09 05:24:04;;;;;;;23.40;8.15;;;7.50;99.90;;;;;;5075613;28;20412;-64
2023/12/09 05:26:30;;;;;;;23.38;8.07;;;7.50;99.90;;;;;;5058861;28;20123;-63
2023/12/09 05:28:57;;;;;;;23.60;8.10;;;7.50;99.90;;;;;;5075988;28;20076;-63
2023/12/09 05:31:23;;;;;;;21.80;7.75;;;7.60;99.90;;;;;;5076484;28;20076;-64
2023/12/09 05:33:50;;;;;;;30.20;9.40;;;7.60;99.90;;;;;;5075437;28;20028;-64
2023/12/09 05:36:15;;;;;;;24.20;7.43;;;7.70;99.90;;;;;;5076205;28;20036;-62
2023/12/09 05:38:42;;;;;;;23.02;8.13;;;7.70;99.90;;;;;;5076214;28;20028;-64
2023/12/09 05:41:09;;;;;;;24.15;7.78;;;7.70;99.90;;;;;;5075342;28;20035;-64
2023/12/09 05:43:36;;;;;;;20.88;7.18;;;7.80;99.90;;;;;;5076900;28;20296;-64
2023/12/09 05:46:02;;;;;;;22.73;7.82;;;7.90;99.90;;;;;;5079084;28;20203;-63
2023/12/09 05:48:28;;;;;;;25.42;6.93;;;7.90;99.90;;;;;;5079774;28;20036;-63
2023/12/09 05:50:54;;;;;;;18.58;7.18;;;8.00;99.90;;;;;;5079672;28;20029;-64
2023/12/09 05:53:21;;;;;;;23.70;8.18;;;8.00;99.90;;;;;;5079606;28;20032;-64
2023/12/09 05:55:47;;;;;;;23.50;7.07;;;8.00;99.90;;;;;;5078811;28;20032;-64
2023/12/09 05:58:13;;;;;;;19.20;6.63;;;8.00;99.90;;;;;;5079473;28;20025;-64
2023/12/09 06:00:39;;;;;;;19.30;7.10;;;8.00;99.90;;;;;;5078673;28;20036;-64
2023/12/09 06:03:05;;;;;;;20.88;6.38;;;8.00;99.90;;;;;;5095493;28;20032;-64
2023/12/09 06:05:30;;;;;;;20.52;6.80;;;8.10;99.90;;;;;;5079406;28;20024;-64
2023/12/09 06:07:56;;;;;;;18.65;6.03;;;8.10;99.90;;;;;;5095337;28;20039;-64
2023/12/09 06:10:22;;;;;;;22.92;6.25;;;8.10;99.90;;;;;;5079285;28;20071;-63
2023/12/09 06:12:48;;;;;;;17.25;6.05;;;8.10;99.90;;;;;;5095388;28;20097;-64
2023/12/09 06:15:14;;;;;;;18.15;6.10;;;8.20;99.90;;;;;;5079165;28;20037;-64
2023/12/09 06:17:39;;;;;;;20.80;5.93;;;8.10;99.90;;;;;;5078268;28;20035;-64
2023/12/09 06:20:08;;;;;;;19.25;5.47;;;8.20;99.90;;;;;;5078273;28;20052;-63
2023/12/09 06:22:34;;;;;;;20.55;5.18;;;8.20;99.90;;;;;;5094892;28;20423;-64
2023/12/09 06:24:59;;;;;;;16.73;5.28;;;8.20;99.90;;;;;;5078959;28;20028;-63
2023/12/09 06:27:25;;;;;;;20.77;4.97;;;8.20;99.90;;;;;;5078971;28;20155;-64
2023/12/09 06:29:51;;;;;;;19.05;5.45;;;8.30;99.90;;;;;;5061273;28;20089;-64
2023/12/09 06:32:17;;;;;;;14.18;4.50;;;8.20;99.90;;;;;;5078075;28;20075;-63
2023/12/09 06:34:43;;;;;;;16.20;4.55;;;8.20;99.90;;;;;;5078743;28;20075;-64
2023/12/09 06:37:09;;;;;;;16.58;4.82;;;8.20;99.90;;;;;;5078664;28;20295;-64
2023/12/09 06:39:35;;;;;;;12.90;3.88;;;8.20;99.90;;;;;;5078668;28;20028;-64
2023/12/09 06:42:01;;;;;;;16.08;4.40;;;8.20;99.90;;;;;;5077841;28;20021;-63
2023/12/09 06:44:27;;;;;;;14.15;4.22;;;8.20;99.90;;;;;;5061129;28;20045;-63
2023/12/09 06:46:53;;;;;;;22.48;5.43;;;8.20;99.90;;;;;;5094627;28;20040;-63
2023/12/09 06:49:19;;;;;;;18.05;3.95;;;8.20;99.90;;;;;;5078486;28;20420;-64
2023/12/09 06:51:45;;;;;;;17.63;4.20;;;8.20;99.90;;;;;;5061079;28;20315;-63
2023/12/09 06:54:11;;;;;;;20.20;4.22;;;8.10;99.90;;;;;;5078093;28;20032;-63
2023/12/09 06:56:37;;;;;;;17.98;4.63;;;8.10;99.90;;;;;;5077702;28;20067;-64
2023/12/09 06:59:04;;;;;;;20.83;4.30;;;8.20;99.90;;;;;;5094455;28;20388;-64
2023/12/09 07:01:30;;;;;;;15.88;3.70;;;8.10;99.90;;;;;;5078296;28;20435;-63
2023/12/09 07:03:56;;;;;;;14.55;3.30;;;8.20;99.90;;;;;;5078397;28;20120;-64
2023/12/09 07:06:27;;;;;;;12.02;3.33;;;8.20;99.90;;;;;;5077441;28;20028;-64
2023/12/09 07:08:54;;;;;;;20.27;3.90;;;8.20;99.90;;;;;;5078204;28;20115;-64
2023/12/09 07:11:21;;;;;;;17.45;3.47;;;8.20;99.90;;;;;;5094110;28;20354;-64
2023/12/09 07:13:48;;;;;;;17.35;3.75;;;8.20;99.90;;;;;;5093963;28;20040;-63
2023/12/09 07:16:14;;;;;;;14.30;3.50;;;8.20;99.90;;;;;;5060560;28;20032;-64
2023/12/09 07:18:45;;;;;;;11.02;2.80;;;8.20;99.90;;;;;;5077227;28;20025;-63
2023/12/09 07:21:14;;;;;;;15.57;2.70;;;8.20;99.90;;;;;;5077850;28;20034;-63
2023/12/09 07:23:40;;;;;;;16.27;3.17;;;8.20;99.90;;;;;;5077023;28;20380;-64
2023/12/09 07:26:07;;;;;;;14.90;3.65;;;8.20;99.90;;;;;;5077741;28;20032;-64
2023/12/09 07:28:33;;;;;;;13.52;3.03;;;8.20;99.90;;;;;;5077573;28;20400;-64
2023/12/09 07:30:59;;;;;;;11.50;2.50;;;8.20;99.90;;;;;;5077741;28;20052;-62
2023/12/09 07:33:25;;;;;;;12.95;3.00;;;8.20;99.90;;;;;;5077093;28;20055;-64
2023/12/09 07:35:51;;;;;;;14.38;3.40;;;8.20;99.90;;;;;;5076790;28;20032;-63
2023/12/09 07:38:17;;;;;;;18.65;3.13;;;8.20;99.90;;;;;;5077541;28;20025;-64
2023/12/09 07:40:44;;;;;;;15.50;2.72;;;8.20;99.90;;;;;;5076563;28;20021;-63
2023/12/09 07:43:10;;;;;;;13.88;3.20;;;8.20;99.90;;;;;;5076540;28;20303;-63
2023/12/09 07:45:35;;;;;;;18.35;3.97;;;8.20;99.90;;;;;;5077368;28;20047;-64
2023/12/09 07:48:03;;;;;;;9.15;2.53;;;8.20;99.90;;;;;;5077279;28;20112;-64
2023/12/09 07:50:32;;;;;;;11.57;2.58;;;8.30;99.90;;;;;;5077119;28;20038;-60
2023/12/09 07:52:59;;;;;;;13.20;2.92;;;8.30;99.90;;;;;;5077146;28;20086;-63
2023/12/09 07:55:25;;;;;;;14.13;2.58;;;8.30;99.90;;;;;;5059261;28;20036;-63
2023/12/09 07:57:51;;;;;;;17.50;2.90;;;8.40;99.90;;;;;;5076154;28;20265;-64
2023/12/09 08:00:17;;;;;;;12.68;2.88;;;8.40;99.90;;;;;;5076176;28;20052;-64
2023/12/09 08:02:43;;;;;;;16.25;3.22;;;8.40;99.90;;;;;;5075960;28;20033;-64
2023/12/09 08:05:09;;;;;;;14.35;2.78;;;8.40;99.90;;;;;;5076100;28;20036;-63
2023/12/09 08:07:35;;;;;;;15.40;2.63;;;8.50;99.90;;;;;;5075607;28;20043;-63
2023/12/09 08:10:01;;;;;;;15.52;2.50;;;8.50;99.90;;;;;;5075976;28;20060;-65
2023/12/09 08:12:27;;;;;;;15.05;2.72;;;8.50;99.90;;;;;;5076925;28;20131;-63
2023/12/09 08:14:53;;;;;;;9.32;2.47;;;8.50;99.90;;;;;;5075999;28;20088;-63
2023/12/09 08:17:18;;;;;;;13.10;2.85;;;8.50;99.90;;;;;;5076265;28;20070;-63
2023/12/09 08:19:44;;;;;;;13.73;2.88;;;8.50;99.90;;;;;;5075849;28;20037;-64
2023/12/09 08:22:10;;;;;;;14.73;3.10;;;8.50;99.90;;;;;;5076627;28;20036;-63
2023/12/09 08:24:36;;;;;;;15.70;3.38;;;8.60;99.90;;;;;;5076868;28;20043;-64
2023/12/09 08:27:03;;;;;;;11.35;2.53;;;8.60;99.90;;;;;;5076092;28;20039;-64
2023/12/09 08:29:29;;;;;;;13.55;2.83;;;8.60;99.90;;;;;;5076762;28;20319;-64
2023/12/09 08:31:56;;;;;;;17.00;2.90;;;8.60;99.90;;;;;;5059365;28;20039;-64
2023/12/09 08:34:22;;;;;;;13.30;3.00;;;8.60;99.90;;;;;;5076714;28;20035;-64
2023/12/09 08:36:48;;;;;;;13.65;3.15;;;8.60;99.90;;;;;;5076737;28;20115;-64
2023/12/09 08:39:15;;;;;;;11.57;2.70;;;8.70;99.90;;;;;;5076742;28;20050;-63
2023/12/09 08:41:40;;;;;;;16.52;3.63;;;8.70;99.90;;;;;;5076731;28;20037;-63
2023/12/09 08:44:06;;;;;;;13.20;2.47;;;8.70;99.90;;;;;;5076635;28;20312;-64
2023/12/09 08:46:33;;;;;;;14.60;3.08;;;8.60;99.90;;;;;;5075953;28;20119;-64
2023/12/09 08:48:58;;;;;;;14.20;2.78;;;8.60;99.90;;;;;;5076686;28;20056;-63
2023/12/09 08:51:24;;;;;;;12.13;2.88;;;8.60;99.90;;;;;;5092671;28;20029;-63
2023/12/09 08:53:50;;;;;;;15.43;2.92;;;8.50;99.90;;;;;;5075586;28;20040;-63
2023/12/09 08:56:16;;;;;;;14.20;2.88;;;8.60;99.90;;;;;;5092574;28;20328;-64
2023/12/09 08:58:42;;;;;;;14.48;2.65;;;8.60;99.90;;;;;;5075881;28;20442;-64
2023/12/09 09:01:08;;;;;;;11.85;2.35;;;8.60;99.90;;;;;;5075647;28;20098;-65
2023/12/09 09:03:34;;;;;;;17.13;3.08;;;8.70;99.90;;;;;;5076648;28;20132;-64
2023/12/09 09:06:00;;;;;;;14.32;2.85;;;8.70;99.90;;;;;;5076488;28;20135;-63
2023/12/09 09:08:26;;;;;;;16.92;3.47;;;8.70;99.90;;;;;;5076296;28;20299;-63
2023/12/09 09:10:53;;;;;;;12.20;2.70;;;8.80;99.90;;;;;;5076562;28;20024;-63
2023/12/09 09:13:19;;;;;;;11.57;2.78;;;8.90;99.90;;;;;;5075563;28;20029;-62
2023/12/09 09:15:44;;;;;;;8.73;2.47;;;8.80;99.90;;;;;;5092133;28;20043;-63
2023/12/09 09:18:10;;;;;;;13.93;3.15;;;8.90;99.90;;;;;;5076486;28;20036;-63
2023/12/09 09:20:36;;;;;;;13.07;2.58;;;8.90;99.90;;;;;;5080204;28;20028;-64
2023/12/09 09:23:02;;;;;;;11.15;3.28;;;8.90;99.90;;;;;;5096193;28;20032;-63
2023/12/09 09:25:27;;;;;;;10.90;2.90;;;9.00;99.90;;;;;;5080305;28;20040;-63
2023/12/09 09:27:53;;;;;;;12.73;2.63;;;9.10;99.90;;;;;;5079774;28;20052;-64
2023/12/09 09:30:19;;;;;;;12.77;2.90;;;9.10;99.90;;;;;;5062481;28;20131;-64
2023/12/09 09:32:48;;;;;;;15.50;2.80;;;9.20;99.90;;;;;;5079818;28;20036;-63
2023/12/09 09:35:14;;;;;;;16.92;3.08;;;9.10;99.90;;;;;;5095944;28;20025;-63
2023/12/09 09:37:40;;;;;;;12.18;2.88;;;9.00;99.90;;;;;;5079766;28;20039;-63
2023/12/09 09:40:07;;;;;;;13.35;3.10;;;9.10;99.90;;;;;;5095838;28;20051;-64
2023/12/09 09:42:32;;;;;;;16.70;2.97;;;9.20;99.90;;;;;;5079644;28;20107;-64
2023/12/09 09:45:20;;;;;;;12.30;2.83;;;9.20;99.90;;;;;;5079561;28;20052;-64
2023/12/09 09:47:51;;;;;;;11.93;2.90;;;9.20;99.90;;;;;;5079465;28;20037;-64
2023/12/09 09:50:21;;;;;;;10.15;2.33;;;9.30;99.90;;;;;;5079433;28;20023;-64
2023/12/09 09:52:48;;;;;;;9.52;3.47;;;9.40;99.90;;;;;;5079535;28;20043;-64
2023/12/09 09:55:19;;;;;;;8.30;2.10;;;9.40;99.90;;;;;;5079418;28;20107;-64
2023/12/09 09:57:46;;;;;;;16.30;2.90;;;9.50;99.90;;;;;;5079621;28;20308;-63
2023/12/09 10:00:14;;;;;;;10.57;2.38;;;9.30;99.90;;;;;;5079407;28;20077;-63
2023/12/09 10:02:44;;;;;;;10.18;2.22;;;9.30;99.90;;;;;;5061803;28;20028;-63
2023/12/09 10:05:12;;;;;;;7.00;2.00;;;9.30;99.90;;;;;;5095452;28;20395;-63
2023/12/09 10:07:39;;;;;;;7.57;2.13;;;9.20;99.90;;;;;;5078560;28;20040;-65
2023/12/09 10:10:09;;;;;;;11.15;2.75;;;9.10;99.90;;;;;;5095341;28;20036;-64
2023/12/09 10:12:36;;;;;;;6.50;1.73;;;9.00;99.90;;;;;;5079423;28;20039;-63
2023/12/09 10:15:02;;;;;;;7.55;2.10;;;8.90;99.90;;;;;;5078379;28;20024;-63
2023/12/09 10:17:29;;;;;;;8.60;2.03;;;8.90;99.90;;;;;;5079108;28;20052;-62
2023/12/09 10:19:55;;;;;;;9.52;2.35;;;8.90;99.90;;;;;;5079083;28;20111;-63
2023/12/09 10:22:22;;;;;;;9.30;2.05;;;8.80;99.90;;;;;;5079005;28;20112;-64
2023/12/09 10:24:52;;;;;;;5.90;2.33;;;8.80;99.90;;;;;;5079045;28;20359;-63
2023/12/09 10:27:24;;;;;;;6.43;1.80;;;8.70;99.90;;;;;;5078898;28;20455;-65
2023/12/09 10:29:56;;;;;;;8.02;1.88;;;8.80;99.90;;;;;;5078156;28;20053;-64
2023/12/09 10:32:23;;;;;;;9.52;2.08;;;8.70;99.90;;;;;;5078980;28;20025;-64
2023/12/09 10:34:50;;;;;;;6.72;2.42;;;8.70;99.90;;;;;;5061263;28;20135;-63
2023/12/09 10:37:17;;;;;;;10.18;2.17;;;8.70;99.90;;;;;;5078654;28;20021;-64
2023/12/09 10:39:44;;;;;;;4.80;1.50;;;8.70;99.90;;;;;;5078779;28;20063;-62
2023/12/09 10:42:10;;;;;;;8.38;1.60;;;8.70;99.90;;;;;;5078630;28;20403;-64
2023/12/09 10:44:36;;;;;;;4.78;1.00;;;8.70;99.90;;;;;;5078481;28;20040;-63
2023/12/09 10:47:03;;;;;;;5.22;1.40;;;8.60;99.90;;;;;;5094578;28;20059;-65
2023/12/09 10:49:33;;;;;;;5.13;1.27;;;8.60;99.90;;;;;;5077690;28;20335;-64
2023/12/09 10:51:59;;;;;;;8.05;1.60;;;8.60;99.90;;;;;;5077680;28;20032;-63
2023/12/09 10:54:25;;;;;;;2.60;1.00;;;8.60;99.90;;;;;;5078285;28;20032;-65
2023/12/09 10:56:51;;;;;;;2.85;1.00;;;8.60;99.90;;;;;;5078196;28;20044;-66
2023/12/09 10:59:18;;;;;;;3.42;1.20;;;8.80;99.90;;;;;;5077534;28;20020;-65
2023/12/09 11:01:47;;;;;;;4.65;1.13;;;8.80;99.90;;;;;;5078449;28;20113;-65
2023/12/09 11:04:15;;;;;;;3.45;0.98;;;8.80;99.90;;;;;;5078244;28;20157;-63
2023/12/09 11:06:42;;;;;;;3.05;1.10;;;8.80;99.90;;;;;;5078081;28;20028;-61
2023/12/09 11:09:08;;;;;;;3.92;1.30;;;8.70;99.90;;;;;;5094117;28;20033;-63
2023/12/09 11:11:35;;;;;;;3.38;1.10;;;8.70;99.90;;;;;;5077909;28;20038;-65
2023/12/09 11:14:01;;;;;;;4.60;1.20;;;8.70;99.90;;;;;;5076918;28;20132;-64
2023/12/09 11:16:28;;;;;;;2.58;0.90;;;8.70;99.90;;;;;;5077835;28;20443;-63
2023/12/09 11:18:58;;;;;;;2.60;1.25;;;8.70;99.90;;;;;;5077844;28;20024;-63
2023/12/09 11:21:26;;;;;;;2.05;0.65;;;8.70;99.90;;;;;;5076965;28;20455;-62
2023/12/09 11:23:57;;;;;;;4.82;1.15;;;8.70;99.90;;;;;;5077794;28;20016;-63
2023/12/09 11:26:31;;;;;;;3.58;0.70;;;8.70;99.90;;;;;;5077163;28;20029;-64
2023/12/09 11:29:03;;;;;;;1.90;0.70;;;8.60;99.90;;;;;;5077603;28;20056;-63
2023/12/09 11:31:49;;;;;;;3.33;0.57;;;8.60;99.90;;;;;;5076974;28;20392;-63
2023/12/09 11:34:17;;;;;;;2.80;0.70;;;8.60;99.90;;;;;;5077229;28;20048;-63
2023/12/09 11:36:44;;;;;;;1.45;0.60;;;8.60;99.90;;;;;;5077340;28;20024;-64
2023/12/09 11:39:22;;;;;;;3.60;0.80;;;8.50;99.90;;;;;;5077164;28;20049;-65
2023/12/09 11:41:49;;;;;;;2.30;0.68;;;8.60;99.90;;;;;;5075797;28;20028;-64
2023/12/09 11:44:16;;;;;;;2.33;0.73;;;8.70;99.90;;;;;;5076603;28;20067;-64
2023/12/09 11:46:43;;;;;;;4.18;0.77;;;8.70;99.90;;;;;;5076744;28;20033;-64
2023/12/09 11:49:09;;;;;;;2.05;0.70;;;8.70;99.90;;;;;;5077153;28;20086;-64
2023/12/09 11:51:36;;;;;;;2.95;0.60;;;8.70;99.90;;;;;;5094057;28;20024;-65
2023/12/09 11:54:10;;;;;;;2.17;0.70;;;8.70;99.90;;;;;;5077260;28;20372;-64
2023/12/09 11:56:37;;;;;;;2.42;0.55;;;8.60;99.90;;;;;;5076798;28;20396;-65
2023/12/09 11:59:05;;;;;;;4.40;0.80;;;8.60;99.90;;;;;;5077313;28;20121;-65
2023/12/09 12:01:31;;;;;;;2.80;0.60;;;8.70;99.90;;;;;;5076432;28;20043;-64
2023/12/09 12:03:58;;;;;;;2.95;0.60;;;8.60;99.90;;;;;;5076415;28;20374;-64
2023/12/09 12:06:24;;;;;;;3.05;0.80;;;8.60;99.90;;;;;;5076414;28;20060;-62
2023/12/09 12:08:54;;;;;;;1.27;0.50;;;8.50;99.90;;;;;;5077036;28;20078;-60
2023/12/09 12:11:24;;;;;;;4.95;0.82;;;8.50;99.90;;;;;;5077101;28;20037;-61
2023/12/09 12:13:52;;;;;;;1.70;0.60;;;8.40;99.90;;;;;;5092818;28;20392;-60
2023/12/09 12:16:18;;;;;;;1.98;0.50;;;8.50;99.90;;;;;;5076949;28;20048;-60
2023/12/09 12:18:44;;;;;;;0.77;0.60;;;8.50;99.90;;;;;;5076853;28;20380;-61
2023/12/09 12:21:10;;;;;;;1.80;0.88;;;8.40;99.90;;;;;;5076810;28;20028;-61
2023/12/09 12:23:39;;;;;;;1.90;0.80;;;8.30;99.90;;;;;;5076688;28;20042;-60
2023/12/09 12:26:05;;;;;;;1.10;0.70;;;8.30;99.90;;;;;;5076775;28;20028;-60
2023/12/09 12:28:31;;;;;;;1.40;0.55;;;8.30;99.90;;;;;;5075961;28;20048;-61
2023/12/09 12:31:03;;;;;;;3.88;0.90;;;8.30;99.90;;;;;;5076853;28;20066;-59
2023/12/09 12:33:32;;;;;;;2.45;0.80;;;8.30;99.90;;;;;;5076828;28;20036;-62
2023/12/09 12:35:59;;;;;;;1.33;0.50;;;8.30;99.90;;;;;;5092190;28;20082;-61
2023/12/09 12:38:26;;;;;;;1.25;0.68;;;8.30;99.90;;;;;;5076663;28;20300;-63
2023/12/09 12:40:53;;;;;;;2.25;0.50;;;8.30;99.90;;;;;;5075941;28;20109;-61
2023/12/09 12:43:19;;;;;;;3.00;0.93;;;8.20;99.90;;;;;;5075937;28;20106;-61
2023/12/09 12:45:46;;;;;;;1.90;0.90;;;8.30;99.90;;;;;;5076107;28;20032;-61